Time;durP1;ratioP1;P1;durP2;ratioP2;P2;SDS_P1;SDS_P2;PMS_P1;PMS_P2;Temp;Humidity;BMP_temperature;BMP_pressure;BME280_temperature;BME280_humidity;BME280_pressure;Samples;Min_cycle;Max_cycle;Signal;HPM_P1;HPM_P2
2022/11/30 00:01:16;;;;;;;53.33;30.27;;;;;;;6.93;100.00;102075.00;5090530;28;20019;-83
2022/11/30 00:03:42;;;;;;;58.15;31.80;;;;;;;6.94;100.00;102081.22;5092445;28;20028;-83
2022/11/30 00:06:10;;;;;;;53.67;31.67;;;;;;;6.92;100.00;102081.28;5107046;28;20094;-83
2022/11/30 00:08:36;;;;;;;49.70;31.10;;;;;;;6.93;100.00;102084.84;5092406;28;20442;-83
2022/11/30 00:11:14;;;;;;;56.95;31.60;;;;;;;6.93;100.00;102088.38;5092471;28;20043;-83
2022/11/30 00:13:40;;;;;;;49.38;31.25;;;;;;;6.92;100.00;102083.94;5091881;28;20040;-84
2022/11/30 00:16:07;;;;;;;52.92;32.65;;;;;;;6.92;100.00;102086.63;5092533;28;20091;-84
2022/11/30 00:18:32;;;;;;;52.05;30.50;;;;;;;6.94;100.00;102082.09;5093099;28;20025;-83
2022/11/30 00:21:00;;;;;;;50.03;31.33;;;;;;;6.95;100.00;102089.16;5093577;28;20012;-84
2022/11/30 00:23:25;;;;;;;56.47;33.42;;;;;;;6.95;100.00;102089.16;5093526;28;20036;-83
2022/11/30 00:25:51;;;;;;;54.33;31.50;;;;;;;6.96;100.00;102090.91;5091391;28;20020;-82
2022/11/30 00:28:16;;;;;;;57.13;32.90;;;;;;;6.97;100.00;102086.47;5103213;28;20044;-83
2022/11/30 00:30:41;;;;;;;52.95;31.30;;;;;;;6.97;100.00;102083.78;5107921;28;20050;-83
2022/11/30 00:33:07;;;;;;;49.65;31.60;;;;;;;6.95;100.00;102088.31;5095417;28;20290;-84
2022/11/30 00:35:32;;;;;;;54.17;31.15;;;;;;;6.96;100.00;102082.03;5100062;28;20019;-83
2022/11/30 00:38:01;;;;;;;54.15;31.30;;;;;;;6.96;100.00;102087.38;5095157;28;20020;-83
2022/11/30 00:40:26;;;;;;;49.40;29.65;;;;;;;6.95;100.00;102082.97;5101714;28;20096;-83
2022/11/30 00:42:51;;;;;;;54.72;30.33;;;;;;;6.96;100.00;102079.38;5113554;28;20031;-83
2022/11/30 00:45:17;;;;;;;62.63;31.45;;;;;;;6.96;100.00;102080.22;5112719;28;20104;-83
2022/11/30 00:47:42;;;;;;;53.47;30.85;;;;;;;6.96;100.00;102090.91;5107592;28;20031;-83
2022/11/30 00:50:08;;;;;;;52.78;31.75;;;;;;;6.96;100.00;102095.41;5098614;28;20044;-83
2022/11/30 00:52:33;;;;;;;51.50;30.73;;;;;;;6.96;100.00;102095.41;5095564;28;20056;-83
2022/11/30 00:54:58;;;;;;;46.55;29.88;;;;;;;6.96;100.00;102095.41;5101701;28;20032;-84
2022/11/30 00:57:24;;;;;;;53.65;31.80;;;;;;;6.94;100.00;102094.56;5106112;28;20028;-83
2022/11/30 00:59:49;;;;;;;53.38;31.90;;;;;;;6.94;100.00;102098.13;5095014;28;20023;-83
2022/11/30 01:02:14;;;;;;;52.97;32.50;;;;;;;6.95;100.00;102097.19;5096075;28;20074;-83
2022/11/30 01:04:39;;;;;;;51.35;31.98;;;;;;;6.96;100.00;102101.63;5096839;28;20063;-83
2022/11/30 01:07:05;;;;;;;54.03;30.95;;;;;;;6.96;100.00;102100.75;5096248;28;20036;-83
2022/11/30 01:09:30;;;;;;;49.03;31.60;;;;;;;6.97;100.00;102102.50;5097624;28;20032;-83
2022/11/30 01:11:55;;;;;;;56.80;30.55;;;;;;;6.96;100.00;102106.09;5092042;28;20024;-83
2022/11/30 01:14:20;;;;;;;52.97;30.75;;;;;;;6.98;100.00;102104.22;5098993;28;20032;-84
2022/11/30 01:16:46;;;;;;;58.00;31.90;;;;;;;6.96;100.00;102104.28;5096637;28;20460;-84
2022/11/30 01:19:11;;;;;;;49.97;29.75;;;;;;;6.98;100.00;102106.91;5109166;28;20153;-85
2022/11/30 01:21:37;;;;;;;53.35;30.80;;;;;;;6.97;100.00;102106.03;5101624;28;20016;-83
2022/11/30 01:24:02;;;;;;;46.97;28.45;;;;;;;6.98;100.00;102105.13;5111050;28;20127;-84
2022/11/30 01:26:28;;;;;;;49.58;28.52;;;;;;;6.98;100.00;102105.13;5111627;28;20073;-83
2022/11/30 01:28:54;;;;;;;47.55;29.73;;;;;;;6.98;100.00;102105.13;5094494;28;20040;-83
2022/11/30 01:31:22;;;;;;;52.63;29.38;;;;;;;6.99;100.00;102109.50;5097820;28;20044;-84
2022/11/30 01:33:49;;;;;;;47.83;28.27;;;;;;;7.02;100.00;102105.00;5108966;28;20027;-84
2022/11/30 01:36:17;;;;;;;49.67;28.50;;;;;;;7.01;100.00;102101.44;5091287;28;20620;-84
2022/11/30 01:38:49;;;;;;;42.35;28.35;;;;;;;7.00;100.00;102105.06;5106446;28;20038;-83
2022/11/30 01:41:20;;;;;;;48.88;27.08;;;;;;;6.98;100.00;102104.22;5098195;28;20025;-84
2022/11/30 01:43:49;;;;;;;52.22;28.77;;;;;;;6.99;100.00;102106.84;5094455;28;20024;-82
2022/11/30 01:46:37;;;;;;;43.80;27.50;;;;;;;7.03;100.00;102104.03;5092218;28;20063;-83
2022/11/30 01:49:13;;;;;;;41.90;25.48;;;;;;;6.95;100.00;102105.22;5106940;28;20058;-84
2022/11/30 01:51:49;;;;;;;43.80;25.30;;;;;;;6.92;100.00;102105.31;5097417;28;20037;-85
2022/11/30 01:54:19;;;;;;;46.17;26.25;;;;;;;6.91;100.00;102108.06;5096065;28;20024;-83
2022/11/30 01:56:55;;;;;;;42.92;25.85;;;;;;;6.91;100.00;102113.41;5090652;28;20040;-84
2022/11/30 01:59:22;;;;;;;43.08;23.80;;;;;;;6.87;100.00;102111.78;5096586;28;20032;-83
2022/11/30 02:01:48;;;;;;;39.30;25.42;;;;;;;6.88;100.00;102124.22;5100447;28;20043;-84
2022/11/30 02:04:22;;;;;;;42.90;24.40;;;;;;;6.87;100.00;102120.69;5104755;28;20034;-83
2022/11/30 02:06:48;;;;;;;43.92;23.42;;;;;;;6.85;100.00;102129.66;5095619;28;20024;-83
2022/11/30 02:09:15;;;;;;;42.58;24.48;;;;;;;6.86;100.00;102126.09;5099551;28;20028;-83
2022/11/30 02:11:41;;;;;;;42.55;24.50;;;;;;;6.86;100.00;102123.41;5093658;28;20032;-84
2022/11/30 02:14:18;;;;;;;39.38;23.58;;;;;;;6.89;100.00;102124.16;5102903;28;20095;-83
2022/11/30 02:17:14;;;;;;;44.60;24.67;;;;;;;6.90;100.00;102122.38;5108723;28;20043;-83
2022/11/30 02:20:08;;;;;;;44.25;24.67;;;;;;;6.92;100.00;102125.84;5106686;28;20702;-83
2022/11/30 02:22:51;;;;;;;40.58;23.20;;;;;;;6.91;100.00;102122.31;5099440;28;21042;-83
2022/11/30 02:25:52;;;;;;;47.28;25.58;;;;;;;6.89;100.00;102113.47;5091633;28;20065;-84
2022/11/30 02:28:29;;;;;;;41.10;24.55;;;;;;;6.88;100.00;102119.75;5093545;28;20082;-84
2022/11/30 02:31:00;;;;;;;42.80;24.30;;;;;;;6.86;100.00;102120.75;5095485;28;20094;-83
2022/11/30 02:33:30;;;;;;;38.08;22.48;;;;;;;6.86;100.00;102120.75;5097044;28;20028;-83
2022/11/30 02:35:57;;;;;;;46.60;23.60;;;;;;;6.85;100.00;102119.84;5090137;28;20051;-83
2022/11/30 02:38:25;;;;;;;40.30;22.77;;;;;;;6.85;100.00;102125.19;5092249;28;20509;-83
2022/11/30 02:40:51;;;;;;;36.13;20.80;;;;;;;6.86;100.00;102121.59;5094271;28;20016;-83
2022/11/30 02:43:20;;;;;;;39.63;23.02;;;;;;;6.86;100.00;102124.28;5107869;28;20058;-83
2022/11/30 02:46:22;;;;;;;37.22;22.05;;;;;;;6.91;100.00;102124.97;5097867;28;20020;-83
2022/11/30 02:49:08;;;;;;;39.95;22.42;;;;;;;6.87;100.00;102125.13;5087921;28;20055;-84
2022/11/30 02:51:36;;;;;;;38.40;20.88;;;;;;;6.83;100.00;102127.06;5121303;28;20035;-84
2022/11/30 02:54:02;;;;;;;42.95;21.75;;;;;;;6.82;100.00;102133.31;5099266;28;20032;-83
2022/11/30 02:56:28;;;;;;;39.55;22.80;;;;;;;6.82;100.00;102131.53;5094892;28;20032;-84
2022/11/30 02:58:53;;;;;;;39.72;22.38;;;;;;;6.85;100.00;102135.03;5107348;28;20036;-83
2022/11/30 03:01:19;;;;;;;44.05;23.27;;;;;;;6.87;100.00;102134.03;5100311;28;20398;-83
2022/11/30 03:03:45;;;;;;;37.53;21.65;;;;;;;6.87;100.00;102131.38;5103399;28;20053;-83
2022/11/30 03:06:10;;;;;;;41.40;20.95;;;;;;;6.85;100.00;102135.03;5100645;28;20043;-83
2022/11/30 03:08:35;;;;;;;36.72;21.48;;;;;;;6.86;100.00;102132.28;5091703;28;20101;-83
2022/11/30 03:11:02;;;;;;;41.75;22.90;;;;;;;6.86;100.00;102132.28;5093200;28;20048;-83
2022/11/30 03:13:30;;;;;;;36.30;21.55;;;;;;;6.83;100.00;102140.41;5087050;28;20025;-83
2022/11/30 03:15:55;;;;;;;38.35;21.45;;;;;;;6.84;100.00;102134.16;5088976;28;20048;-83
2022/11/30 03:18:20;;;;;;;35.67;20.08;;;;;;;6.85;100.00;102138.56;5088423;28;20028;-84
2022/11/30 03:20:45;;;;;;;32.40;19.35;;;;;;;6.87;100.00;102135.81;5102807;28;20015;-83
2022/11/30 03:23:11;;;;;;;34.25;18.40;;;;;;;6.85;100.00;102135.88;5108273;28;20031;-83
2022/11/30 03:25:36;;;;;;;34.85;18.77;;;;;;;6.83;100.00;102133.25;5094610;28;20959;-83
2022/11/30 03:28:02;;;;;;;32.53;18.90;;;;;;;6.82;100.00;102141.34;5088070;28;20173;-83
2022/11/30 03:30:27;;;;;;;33.35;19.80;;;;;;;6.78;100.00;102134.38;5090988;28;20047;-83
2022/11/30 03:32:53;;;;;;;33.70;18.90;;;;;;;6.74;100.00;102138.97;5089257;28;20032;-83
2022/11/30 03:35:21;;;;;;;36.00;17.58;;;;;;;6.70;100.00;102134.66;5089934;28;20029;-83
2022/11/30 03:37:46;;;;;;;37.33;19.13;;;;;;;6.69;100.00;102145.38;5102183;28;20020;-83
2022/11/30 03:40:12;;;;;;;35.70;19.63;;;;;;;6.67;100.00;102133.91;5096453;28;20016;-84
2022/11/30 03:42:37;;;;;;;33.38;17.77;;;;;;;6.62;100.00;102134.94;5090697;28;20040;-83
2022/11/30 03:45:03;;;;;;;32.47;17.73;;;;;;;6.59;100.00;102132.38;5101933;28;20031;-83
2022/11/30 03:47:28;;;;;;;32.08;17.48;;;;;;;6.55;100.00;102133.41;5101526;28;20020;-83
2022/11/30 03:49:53;;;;;;;34.38;19.83;;;;;;;6.55;100.00;102133.41;5098783;28;20023;-83
2022/11/30 03:52:19;;;;;;;34.08;18.08;;;;;;;6.52;100.00;102141.53;5100678;28;20032;-83
2022/11/30 03:54:44;;;;;;;34.15;19.33;;;;;;;6.50;100.00;102138.06;5098515;28;20029;-83
2022/11/30 03:57:09;;;;;;;32.58;17.17;;;;;;;6.49;100.00;102138.97;5094902;28;20035;-83
2022/11/30 03:59:34;;;;;;;37.85;18.88;;;;;;;6.44;100.00;102139.16;5095981;28;20043;-83
2022/11/30 04:02:00;;;;;;;33.70;19.08;;;;;;;6.43;100.00;102139.19;5093593;28;20474;-84
2022/11/30 04:04:25;;;;;;;28.33;16.65;;;;;;;6.44;100.00;102132.91;5094249;28;20043;-83
2022/11/30 04:06:50;;;;;;;37.58;18.88;;;;;;;6.43;100.00;102134.72;5105919;28;20030;-83
2022/11/30 04:09:16;;;;;;;30.90;17.38;;;;;;;6.46;100.00;102136.41;5097226;28;20040;-83
2022/11/30 04:11:41;;;;;;;35.80;18.77;;;;;;;6.47;100.00;102138.13;5109534;28;20527;-83
2022/11/30 04:14:06;;;;;;;31.15;17.35;;;;;;;6.47;100.00;102138.13;5095652;28;20039;-83
2022/11/30 04:16:31;;;;;;;31.33;17.83;;;;;;;6.50;100.00;102139.84;5103282;28;20026;-83
2022/11/30 04:18:57;;;;;;;30.65;17.30;;;;;;;6.51;100.00;102139.78;5105319;28;20028;-83
2022/11/30 04:21:22;;;;;;;33.70;17.92;;;;;;;6.51;100.00;102147.78;5108801;28;20043;-83
2022/11/30 04:23:47;;;;;;;31.50;16.63;;;;;;;6.53;100.00;102143.28;5092140;28;20004;-83
2022/11/30 04:26:15;;;;;;;34.75;18.58;;;;;;;6.56;100.00;102144.94;5098518;28;20028;-84
2022/11/30 04:28:41;;;;;;;34.00;16.58;;;;;;;6.56;100.00;102142.28;5092626;28;20075;-83
2022/11/30 04:31:07;;;;;;;29.65;16.50;;;;;;;6.54;100.00;102144.16;5104682;28;20029;-83
2022/11/30 04:33:33;;;;;;;36.95;18.73;;;;;;;6.54;100.00;102150.34;5109989;28;20024;-83
2022/11/30 04:36:00;;;;;;;34.13;19.00;;;;;;;6.57;100.00;102152.03;5103646;28;20044;-83
2022/11/30 04:38:27;;;;;;;34.45;17.95;;;;;;;6.59;100.00;102145.72;5109208;28;20024;-83
2022/11/30 04:40:53;;;;;;;31.63;17.60;;;;;;;6.59;100.00;102144.88;5101866;28;20012;-83
2022/11/30 04:43:18;;;;;;;34.50;19.00;;;;;;;6.61;100.00;102146.53;5094024;28;20025;-84
2022/11/30 04:45:44;;;;;;;30.38;16.55;;;;;;;6.64;100.00;102150.91;5098328;28;20016;-84
2022/11/30 04:48:10;;;;;;;34.03;17.52;;;;;;;6.62;100.00;102145.63;5095127;28;20038;-83
2022/11/30 04:50:35;;;;;;;28.33;16.35;;;;;;;6.61;100.00;102151.03;5111343;28;20179;-83
2022/11/30 04:53:01;;;;;;;33.38;18.92;;;;;;;6.58;100.00;102149.31;5113175;28;20032;-83
2022/11/30 04:55:27;;;;;;;30.48;17.63;;;;;;;6.57;100.00;102152.91;5104912;28;20091;-83
2022/11/30 04:57:52;;;;;;;34.78;18.80;;;;;;;6.57;100.00;102149.38;5092308;28;20086;-83
2022/11/30 05:00:18;;;;;;;32.13;19.17;;;;;;;6.57;100.00;102157.38;5095760;28;20454;-83
2022/11/30 05:02:44;;;;;;;32.22;16.80;;;;;;;6.54;100.00;102145.00;5100189;28;20020;-83
2022/11/30 05:05:10;;;;;;;40.05;18.02;;;;;;;6.53;100.00;102150.41;5108286;28;20026;-84
2022/11/30 05:07:35;;;;;;;31.50;16.15;;;;;;;6.48;100.00;102153.25;5103349;28;20017;-84
2022/11/30 05:10:00;;;;;;;37.30;18.25;;;;;;;6.47;100.00;102155.06;5102806;28;20118;-83
2022/11/30 05:12:26;;;;;;;30.83;16.45;;;;;;;6.43;100.00;102147.22;5095952;28;20028;-83
2022/11/30 05:14:51;;;;;;;31.83;18.63;;;;;;;6.43;100.00;102156.09;5101034;28;20043;-83
2022/11/30 05:17:16;;;;;;;33.92;17.02;;;;;;;6.40;100.00;102158.88;5093284;28;20092;-83
2022/11/30 05:19:42;;;;;;;33.13;17.52;;;;;;;6.36;100.00;102149.22;5098354;28;20095;-83
2022/11/30 05:22:07;;;;;;;30.30;17.20;;;;;;;6.31;100.00;102153.84;5097297;28;20028;-83
2022/11/30 05:24:32;;;;;;;33.05;18.40;;;;;;;6.28;100.00;102159.28;5100428;28;20024;-83
2022/11/30 05:26:58;;;;;;;28.83;15.88;;;;;;;6.22;100.00;102152.38;5101242;28;20387;-83
2022/11/30 05:29:23;;;;;;;31.83;15.95;;;;;;;6.17;100.00;102164.97;5100587;28;20131;-83
2022/11/30 05:31:49;;;;;;;29.05;15.82;;;;;;;6.09;100.00;102167.91;5105240;28;20034;-83
2022/11/30 05:34:14;;;;;;;32.45;17.33;;;;;;;6.05;100.00;102155.59;5110436;28;20087;-83
2022/11/30 05:36:39;;;;;;;30.35;15.55;;;;;;;6.00;100.00;102160.19;5108086;28;20020;-83
2022/11/30 05:39:05;;;;;;;31.00;16.55;;;;;;;6.00;100.00;102159.34;5107543;28;20039;-83
2022/11/30 05:41:30;;;;;;;28.55;15.68;;;;;;;5.97;100.00;102164.75;5101211;28;20047;-82
2022/11/30 05:43:56;;;;;;;29.25;16.55;;;;;;;5.94;100.00;102173.72;5104521;28;20084;-83
2022/11/30 05:46:21;;;;;;;31.23;16.05;;;;;;;5.90;100.00;102172.97;5093621;28;20165;-83
2022/11/30 05:48:46;;;;;;;34.88;17.58;;;;;;;5.88;100.00;102169.44;5091999;28;20069;-83
2022/11/30 05:51:14;;;;;;;29.27;16.08;;;;;;;5.90;100.00;102178.28;5094733;28;20123;-83
2022/11/30 05:53:41;;;;;;;29.95;17.10;;;;;;;5.91;100.00;102185.34;5095651;28;20017;-83
2022/11/30 05:56:10;;;;;;;29.23;14.77;;;;;;;5.91;100.00;102185.34;5091665;28;20023;-83
2022/11/30 05:58:36;;;;;;;29.05;15.10;;;;;;;5.97;100.00;102180.75;5091577;28;20032;-83
2022/11/30 06:01:01;;;;;;;30.15;15.52;;;;;;;5.97;100.00;102176.31;5102988;28;20052;-83
2022/11/30 06:03:28;;;;;;;28.98;16.08;;;;;;;6.02;100.00;102194.84;5094861;28;20025;-83
2022/11/30 06:05:54;;;;;;;30.30;17.38;;;;;;;6.05;100.00;102186.75;5095266;28;20041;-83
2022/11/30 06:08:19;;;;;;;29.70;15.48;;;;;;;6.07;100.00;102191.09;5103417;28;20012;-83
2022/11/30 06:10:45;;;;;;;28.60;15.98;;;;;;;6.09;100.00;102189.28;5100155;28;20073;-84
2022/11/30 06:13:10;;;;;;;27.98;16.55;;;;;;;6.07;100.00;102187.56;5093221;28;20092;-83
2022/11/30 06:15:37;;;;;;;33.97;17.73;;;;;;;6.09;100.00;102193.72;5109664;28;20041;-83
2022/11/30 06:18:03;;;;;;;29.67;16.70;;;;;;;6.05;100.00;102184.94;5110541;28;20089;-82
2022/11/30 06:20:28;;;;;;;29.10;15.57;;;;;;;6.06;100.00;102192.03;5096310;28;20025;-83
2022/11/30 06:22:54;;;;;;;28.92;16.80;;;;;;;6.07;100.00;102190.25;5095836;28;20107;-83
2022/11/30 06:25:19;;;;;;;30.15;16.60;;;;;;;6.06;100.00;102191.16;5094671;28;20028;-83
2022/11/30 06:27:45;;;;;;;28.88;15.32;;;;;;;6.04;100.00;102193.88;5104940;28;20035;-84
2022/11/30 06:30:11;;;;;;;31.05;17.02;;;;;;;6.06;100.00;102196.50;5091583;28;20195;-83
2022/11/30 06:32:36;;;;;;;36.45;15.82;;;;;;;6.08;100.00;102197.34;5102685;28;20024;-82
2022/11/30 06:35:01;;;;;;;31.25;18.13;;;;;;;6.10;100.00;102195.47;5095854;28;20764;-83
2022/11/30 06:37:33;;;;;;;32.00;16.40;;;;;;;6.11;100.00;102192.75;5102637;28;20028;-83
2022/11/30 06:39:59;;;;;;;27.70;15.18;;;;;;;6.09;100.00;102193.72;5101988;28;20020;-82
2022/11/30 06:42:24;;;;;;;28.35;15.15;;;;;;;6.06;100.00;102194.72;5096779;28;20070;-83
2022/11/30 06:44:49;;;;;;;28.83;15.38;;;;;;;6.05;100.00;102192.09;5097618;28;20063;-83
2022/11/30 06:47:14;;;;;;;32.50;16.77;;;;;;;6.05;100.00;102194.75;5096339;28;20482;-83
2022/11/30 06:49:40;;;;;;;34.30;16.42;;;;;;;6.03;100.00;102202.81;5100486;28;20028;-83
2022/11/30 06:52:05;;;;;;;30.42;16.60;;;;;;;6.03;100.00;102207.28;5096445;28;20046;-83
2022/11/30 06:54:30;;;;;;;34.50;18.58;;;;;;;6.06;100.00;102193.81;5100837;28;20015;-84
2022/11/30 06:56:56;;;;;;;33.70;18.23;;;;;;;6.07;100.00;102208.91;5098243;28;20607;-83
2022/11/30 06:59:22;;;;;;;33.58;15.90;;;;;;;6.07;100.00;102207.13;5106972;28;20036;-84
2022/11/30 07:01:47;;;;;;;31.35;16.83;;;;;;;6.08;100.00;102216.00;5095366;28;20024;-83
2022/11/30 07:04:12;;;;;;;29.58;16.23;;;;;;;6.09;100.00;102209.72;5096624;28;20085;-83
2022/11/30 07:06:38;;;;;;;28.90;16.52;;;;;;;6.09;100.00;102207.97;5100180;28;20062;-83
2022/11/30 07:09:03;;;;;;;31.52;16.27;;;;;;;6.11;100.00;102213.25;5102195;28;20122;-83
2022/11/30 07:11:28;;;;;;;31.33;16.17;;;;;;;6.10;100.00;102217.69;5089185;28;20024;-83
2022/11/30 07:13:53;;;;;;;27.92;16.40;;;;;;;6.07;100.00;102214.25;5104424;28;20081;-83
2022/11/30 07:16:19;;;;;;;31.92;16.23;;;;;;;6.06;100.00;102218.75;5107347;28;20114;-83
2022/11/30 07:18:44;;;;;;;31.67;18.33;;;;;;;6.09;100.00;102223.97;5108886;28;20016;-83
2022/11/30 07:21:12;;;;;;;29.13;16.83;;;;;;;6.09;100.00;102226.63;5101865;28;20031;-83
2022/11/30 07:26:21;;;;;;;28.45;14.85;;;;;;;6.11;100.00;102234.59;5105658;28;20042;-83
2022/11/30 07:28:53;;;;;;;35.08;16.70;;;;;;;6.14;100.00;102237.16;5108850;28;20076;-83
2022/11/30 07:31:24;;;;;;;32.45;18.98;;;;;;;6.15;100.00;102241.59;5098073;28;20028;-83
2022/11/30 07:33:50;;;;;;;29.08;16.45;;;;;;;6.15;100.00;102244.25;5085606;28;20032;-83
2022/11/30 07:36:17;;;;;;;29.52;16.17;;;;;;;6.14;100.00;102238.97;5092590;28;20039;-83
2022/11/30 07:38:43;;;;;;;31.45;18.08;;;;;;;6.15;100.00;102246.94;5096539;28;20031;-83
2022/11/30 07:41:09;;;;;;;30.20;16.42;;;;;;;6.16;100.00;102243.31;5089859;28;20025;-84
2022/11/30 07:43:34;;;;;;;32.97;18.13;;;;;;;6.17;100.00;102247.75;5099513;28;20046;-83
2022/11/30 07:46:00;;;;;;;30.27;17.17;;;;;;;6.18;100.00;102249.50;5094522;28;20025;-83
2022/11/30 07:48:26;;;;;;;34.50;20.88;;;;;;;6.19;100.00;102261.91;5089617;28;20028;-83
2022/11/30 07:50:51;;;;;;;29.75;16.27;;;;;;;6.20;100.00;102254.78;5090626;28;20040;-84
2022/11/30 07:53:17;;;;;;;33.85;19.55;;;;;;;6.21;100.00;102256.50;5100549;28;20088;-84
2022/11/30 07:55:42;;;;;;;32.88;17.48;;;;;;;6.22;100.00;102261.81;5090673;28;20067;-83
2022/11/30 07:58:09;;;;;;;32.08;18.33;;;;;;;6.23;100.00;102266.22;5094463;28;20127;-83
2022/11/30 08:00:38;;;;;;;32.63;18.25;;;;;;;6.24;100.00;102262.63;5101449;28;20039;-83
2022/11/30 08:03:03;;;;;;;35.42;19.30;;;;;;;6.24;100.00;102259.97;5105346;28;20056;-83
2022/11/30 08:05:29;;;;;;;32.08;19.02;;;;;;;6.26;100.00;102259.91;5109657;28;20047;-83
2022/11/30 08:07:54;;;;;;;30.95;18.33;;;;;;;6.30;100.00;102267.78;5091644;28;20032;-83
2022/11/30 08:10:21;;;;;;;33.70;19.25;;;;;;;6.34;100.00;102265.88;5092166;28;20020;-84
2022/11/30 08:12:47;;;;;;;35.58;18.83;;;;;;;6.37;100.00;102272.91;5105767;28;20033;-84
2022/11/30 08:15:12;;;;;;;33.15;18.00;;;;;;;6.36;100.00;102271.19;5093064;28;20092;-84
2022/11/30 08:17:38;;;;;;;34.38;20.02;;;;;;;6.39;100.00;102271.06;5102091;28;20032;-83
2022/11/30 08:20:05;;;;;;;34.63;18.33;;;;;;;6.39;100.00;102271.94;5093892;28;20042;-83
2022/11/30 08:22:31;;;;;;;32.65;17.98;;;;;;;6.41;100.00;102282.56;5089696;28;20020;-83
2022/11/30 08:24:56;;;;;;;31.60;18.50;;;;;;;6.43;100.00;102275.41;5098554;28;20107;-83
2022/11/30 08:27:22;;;;;;;32.78;18.75;;;;;;;6.45;100.00;102281.53;5110120;28;20020;-83
2022/11/30 08:29:47;;;;;;;34.03;19.63;;;;;;;6.46;100.00;102283.31;5105586;28;20024;-83
2022/11/30 08:32:12;;;;;;;35.80;20.42;;;;;;;6.50;100.00;102284.06;5096203;28;20048;-84
2022/11/30 08:34:37;;;;;;;30.05;17.08;;;;;;;6.53;100.00;102279.50;5093144;28;20038;-84
2022/11/30 08:37:03;;;;;;;31.70;19.17;;;;;;;6.54;100.00;102293.72;5096265;28;20009;-83
2022/11/30 08:39:30;;;;;;;34.13;18.70;;;;;;;6.56;100.00;102297.22;5090371;28;20029;-84
2022/11/30 08:41:56;;;;;;;35.00;19.90;;;;;;;6.56;100.00;102292.75;5098080;28;20616;-83
2022/11/30 08:44:21;;;;;;;33.13;20.30;;;;;;;6.56;100.00;102295.44;5098150;28;20032;-83
2022/11/30 08:46:46;;;;;;;35.15;20.02;;;;;;;6.57;100.00;102290.94;5107306;28;20054;-83
2022/11/30 08:49:12;;;;;;;36.38;19.83;;;;;;;6.59;100.00;102302.47;5109889;28;20081;-83
2022/11/30 08:51:37;;;;;;;35.60;21.33;;;;;;;6.58;100.00;102298.91;5099799;28;20043;-83
2022/11/30 08:54:02;;;;;;;39.42;18.95;;;;;;;6.60;100.00;102307.78;5104029;28;20032;-84
2022/11/30 08:56:27;;;;;;;35.08;20.75;;;;;;;6.57;100.00;102305.16;5093345;28;20031;-84
2022/11/30 08:58:53;;;;;;;33.35;20.02;;;;;;;6.56;100.00;102299.88;5088338;28;20039;-83
2022/11/30 09:01:21;;;;;;;33.67;19.92;;;;;;;6.58;100.00;102296.25;5096469;28;20056;-84
2022/11/30 09:03:50;;;;;;;35.97;19.73;;;;;;;6.56;100.00;102306.13;5090208;28;20024;-83
2022/11/30 09:06:18;;;;;;;32.97;19.77;;;;;;;6.58;100.00;102301.59;5091950;28;20024;-83
2022/11/30 09:08:46;;;;;;;33.33;19.17;;;;;;;6.56;100.00;102310.56;5089425;28;20117;-83
2022/11/30 09:11:22;;;;;;;30.83;18.00;;;;;;;6.59;100.00;102313.16;5107248;28;20035;-84
2022/11/30 09:13:48;;;;;;;31.05;18.77;;;;;;;6.59;100.00;102308.69;5103882;28;20032;-83
2022/11/30 09:16:15;;;;;;;38.83;19.27;;;;;;;6.61;100.00;102317.50;5093005;28;20497;-83
2022/11/30 09:18:40;;;;;;;32.20;18.95;;;;;;;6.65;100.00;102316.47;5092867;28;21258;-83
2022/11/30 09:21:12;;;;;;;31.98;20.42;;;;;;;6.66;100.00;102322.69;5106668;28;20020;-84
2022/11/30 09:23:37;;;;;;;34.50;21.58;;;;;;;6.69;100.00;102311.94;5099447;28;20027;-84
2022/11/30 09:26:05;;;;;;;32.97;20.33;;;;;;;6.71;100.00;102319.91;5106453;28;20118;-83
2022/11/30 09:28:34;;;;;;;42.83;22.60;;;;;;;6.73;100.00;102320.69;5093843;28;20054;-83
2022/11/30 09:31:10;;;;;;;43.72;20.95;;;;;;;6.77;100.00;102319.69;5091811;28;20848;-83
2022/11/30 09:33:36;;;;;;;33.20;20.02;;;;;;;6.77;100.00;102317.00;5086008;28;20016;-83
2022/11/30 09:36:04;;;;;;;34.10;21.15;;;;;;;6.81;100.00;102321.34;5106078;28;20042;-84
2022/11/30 09:38:29;;;;;;;33.50;20.67;;;;;;;6.80;100.00;102324.91;5099279;28;20035;-84
2022/11/30 09:40:56;;;;;;;33.45;19.08;;;;;;;6.84;100.00;102323.91;5097289;28;20025;-83
2022/11/30 09:43:47;;;;;;;31.55;19.70;;;;;;;6.92;100.00;102334.31;5085888;28;20024;-83
2022/11/30 09:46:12;;;;;;;34.60;19.65;;;;;;;6.89;100.00;102319.25;5087519;28;20080;-83
2022/11/30 09:49:11;;;;;;;33.63;19.77;;;;;;;6.93;100.00;102326.25;5086180;28;20024;-83
2022/11/30 09:51:47;;;;;;;32.75;21.92;;;;;;;6.93;100.00;102328.91;5103268;28;20101;-83
2022/11/30 09:54:18;;;;;;;31.48;19.58;;;;;;;6.93;100.00;102318.22;5104863;28;20145;-83
2022/11/30 09:56:45;;;;;;;32.50;19.60;;;;;;;6.94;100.00;102319.09;5082636;28;20034;-84
2022/11/30 09:59:21;;;;;;;36.45;20.40;;;;;;;6.93;100.00;102320.03;5084096;28;20055;-83
2022/11/30 10:01:49;;;;;;;32.17;19.23;;;;;;;6.93;100.00;102325.38;5083595;28;20021;-84
2022/11/30 10:04:23;;;;;;;31.38;19.90;;;;;;;6.92;100.00;102323.63;5083755;28;20031;-83
2022/11/30 10:07:15;;;;;;;35.58;20.90;;;;;;;6.92;100.00;102319.13;5090855;28;20032;-84
2022/11/30 10:10:09;;;;;;;31.33;19.20;;;;;;;6.96;100.00;102320.78;5100516;28;20525;-83
2022/11/30 10:12:43;;;;;;;38.10;19.73;;;;;;;6.95;100.00;102320.84;5082817;28;20032;-84
2022/11/30 10:15:11;;;;;;;35.55;20.23;;;;;;;6.99;100.00;102318.00;5088158;28;20036;-84
2022/11/30 10:17:55;;;;;;;33.38;20.35;;;;;;;7.06;100.00;102315.13;5088138;28;20037;-84
2022/11/30 10:20:35;;;;;;;34.80;20.33;;;;;;;7.07;100.00;102312.41;5088889;28;20356;-84
2022/11/30 10:23:19;;;;;;;33.75;20.35;;;;;;;7.15;100.00;102315.66;5097627;28;20051;-83
2022/11/30 10:25:53;;;;;;;35.25;20.67;;;;;;;7.20;100.00;102311.97;5102677;28;20085;-84
2022/11/30 10:28:40;;;;;;;34.67;19.17;;;;;;;7.26;100.00;102317.09;5097105;28;20059;-84
2022/11/30 10:31:11;;;;;;;34.05;21.63;;;;;;;7.37;100.00;102314.06;5093270;28;20028;-84
2022/11/30 10:33:45;;;;;;;37.97;22.13;;;;;;;7.47;100.00;102310.09;5099926;28;20035;-84
2022/11/30 10:36:39;;;;;;;39.10;23.50;;;;;;;7.56;100.00;102307.09;5098229;28;20027;-85
2022/11/30 10:39:23;;;;;;;36.45;21.98;;;;;;;7.62;100.00;102306.84;5092199;28;20020;-84
2022/11/30 10:41:55;;;;;;;37.92;22.40;;;;;;;7.63;100.00;102300.56;5093323;28;20043;-84
2022/11/30 10:44:30;;;;;;;35.15;22.67;;;;;;;7.66;100.00;102304.94;5092760;28;20115;-84
2022/11/30 10:47:11;;;;;;;42.50;23.85;;;;;;;7.66;100.00;102305.81;5089141;28;20024;-84
2022/11/30 10:49:41;;;;;;;36.38;23.27;;;;;;;7.64;100.00;102302.31;5096392;28;20013;-84
2022/11/30 10:52:08;;;;;;;37.53;23.05;;;;;;;7.66;100.00;102299.59;5092670;28;20058;-84
2022/11/30 10:54:35;;;;;;;39.33;23.90;;;;;;;7.67;100.00;102301.31;5094451;28;20028;-84
2022/11/30 10:57:06;;;;;;;35.92;22.67;;;;;;;7.72;100.00;102293.09;5097858;28;20023;-84
2022/11/30 10:59:48;;;;;;;34.45;21.67;;;;;;;7.83;100.00;102301.59;5098422;28;20027;-84
2022/11/30 11:02:40;;;;;;;36.33;22.25;;;;;;;7.92;100.00;102295.91;5101170;28;20016;-84
2022/11/30 11:05:22;;;;;;;38.10;23.30;;;;;;;8.00;100.00;102288.44;5090893;28;20028;-85
2022/11/30 11:07:50;;;;;;;34.78;21.45;;;;;;;8.07;100.00;102291.75;5082127;28;20035;-84
2022/11/30 11:10:29;;;;;;;34.47;21.50;;;;;;;8.12;100.00;102288.91;5081159;28;20029;-85
2022/11/30 11:12:54;;;;;;;37.92;21.80;;;;;;;8.17;100.00;102295.81;5093282;28;20036;-84
2022/11/30 11:15:25;;;;;;;35.65;22.27;;;;;;;8.19;100.00;102287.72;5078773;28;20166;-84
2022/11/30 11:17:52;;;;;;;36.95;22.92;;;;;;;8.21;100.00;102285.84;5089263;28;20073;-84